Time;durP1;ratioP1;P1;durP2;ratioP2;P2;SDS_P1;SDS_P2;PMS_P1;PMS_P2;Temp;Humidity;BMP_temperature;BMP_pressure;BME280_temperature;BME280_humidity;BME280_pressure;Samples;Min_cycle;Max_cycle;Signal;HPM_P1;HPM_P2
2023/10/01 00:00:19;;;;;;;;;;;19.00;70.10;;;;;;5094689;28;20008;-72
2023/10/01 00:02:46;;;;;;;;;;;19.00;70.10;;;;;;5094328;28;19928;-71
2023/10/01 00:05:12;;;;;;;;;;;19.00;70.10;;;;;;5094662;28;20378;-72
2023/10/01 00:07:37;;;;;;;;;;;19.00;70.10;;;;;;5094408;28;19927;-72
2023/10/01 00:10:10;;;;;;;;;;;19.00;70.10;;;;;;5112547;28;19927;-72
2023/10/01 00:12:37;;;;;;;;;;;19.00;70.10;;;;;;5094396;28;20011;-71
2023/10/01 00:15:02;;;;;;;;;;;18.90;70.10;;;;;;5112390;28;19965;-72
2023/10/01 00:17:28;;;;;;;;;;;18.90;70.10;;;;;;5094566;28;19927;-72
2023/10/01 00:19:53;;;;;;;;;;;18.90;70.10;;;;;;5094210;28;20395;-72
2023/10/01 00:22:19;;;;;;;;;;;19.00;70.10;;;;;;5112408;28;19984;-72
2023/10/01 00:24:44;;;;;;;;;;;18.90;70.10;;;;;;5128206;28;19927;-71
2023/10/01 00:27:10;;;;;;;;;;;18.90;70.00;;;;;;5112560;28;19942;-72
2023/10/01 00:29:35;;;;;;;;;;;18.90;70.10;;;;;;5112374;28;19919;-72
2023/10/01 00:32:01;;;;;;;;;;;18.90;70.10;;;;;;5128605;28;20015;-71
2023/10/01 00:34:26;;;;;;;;;;;18.90;70.10;;;;;;5094450;28;19919;-72
2023/10/01 00:36:52;;;;;;;;;;;18.90;70.10;;;;;;5094095;28;19924;-71
2023/10/01 00:39:18;;;;;;;;;;;18.90;70.10;;;;;;5094414;28;19920;-72
2023/10/01 00:41:44;;;;;;;;;;;18.90;70.10;;;;;;5093973;28;19923;-71
2023/10/01 00:44:10;;;;;;;;;;;18.90;70.00;;;;;;5094299;28;19931;-72
2023/10/01 00:46:36;;;;;;;;;;;18.90;70.10;;;;;;5094055;28;19920;-71
2023/10/01 00:49:02;;;;;;;;;;;18.90;70.00;;;;;;5128416;27;19980;-71
2023/10/01 00:51:31;;;;;;;;;;;18.90;70.00;;;;;;5097633;28;20018;-71
2023/10/01 00:53:57;;;;;;;;;;;18.90;70.00;;;;;;5097926;28;20010;-71
2023/10/01 00:56:22;;;;;;;;;;;18.90;70.00;;;;;;5097514;28;20015;-71
2023/10/01 00:58:48;;;;;;;;;;;18.90;70.10;;;;;;5097574;28;19962;-72
2023/10/01 01:01:16;;;;;;;;;;;18.90;70.00;;;;;;5115590;28;19920;-72
2023/10/01 01:03:45;;;;;;;;;;;18.90;70.10;;;;;;5115519;28;19920;-72
2023/10/01 01:06:17;;;;;;;;;;;18.90;70.10;;;;;;5097668;28;20010;-72
2023/10/01 01:08:46;;;;;;;;;;;18.90;70.10;;;;;;5097692;28;19973;-72
2023/10/01 01:11:15;;;;;;;;;;;18.90;70.10;;;;;;5097587;28;20435;-72
2023/10/01 01:13:41;;;;;;;;;;;19.00;70.10;;;;;;5097345;28;19927;-72
2023/10/01 01:16:07;;;;;;;;;;;18.90;70.10;;;;;;5097162;28;19920;-72
2023/10/01 01:18:36;;;;;;;;;;;18.90;70.10;;;;;;5097403;28;19972;-72
2023/10/01 01:21:09;;;;;;;;;;;18.90;70.10;;;;;;5097020;28;19930;-72
2023/10/01 01:23:35;;;;;;;;;;;18.90;70.10;;;;;;5097097;28;20060;-71
2023/10/01 01:26:01;;;;;;;;;;;18.90;70.10;;;;;;5097384;28;20006;-72
2023/10/01 01:28:27;;;;;;;;;;;18.90;70.10;;;;;;5096938;28;20000;-71
2023/10/01 01:30:53;;;;;;;;;;;18.80;70.00;;;;;;5097287;28;19926;-71
2023/10/01 01:33:26;;;;;;;;;;;18.90;70.10;;;;;;5115332;28;19920;-71
2023/10/01 01:35:54;;;;;;;;;;;18.90;70.10;;;;;;5115202;28;19924;-72
2023/10/01 01:38:21;;;;;;;;;;;18.90;70.10;;;;;;5115163;28;20365;-72
2023/10/01 01:40:50;;;;;;;;;;;18.80;70.10;;;;;;5096715;28;20441;-72
2023/10/01 01:43:21;;;;;;;;;;;18.90;70.10;;;;;;5096379;28;19923;-71
2023/10/01 01:45:54;;;;;;;;;;;18.90;70.10;;;;;;5096603;28;20015;-73
2023/10/01 01:48:21;;;;;;;;;;;18.90;70.10;;;;;;5115015;28;19970;-72
2023/10/01 01:50:47;;;;;;;;;;;18.90;70.10;;;;;;5114864;28;19920;-73
2023/10/01 01:53:13;;;;;;;;;;;18.90;70.10;;;;;;5096744;28;19919;-72
2023/10/01 01:55:39;;;;;;;;;;;18.90;70.10;;;;;;5096510;28;19973;-71
2023/10/01 01:58:15;;;;;;;;;;;18.80;70.00;;;;;;5096322;28;19920;-71
2023/10/01 02:03:27;;;;;;;;;;;18.80;70.00;;;;;;5096032;28;19959;-72
2023/10/01 02:05:52;;;;;;;;;;;18.90;70.10;;;;;;5096257;28;19919;-71
2023/10/01 02:08:34;;;;;;;;;;;18.90;70.10;;;;;;5096477;28;19920;-72
2023/10/01 02:11:04;;;;;;;;;;;18.90;70.10;;;;;;5114671;28;20014;-71
2023/10/01 02:13:30;;;;;;;;;;;18.80;70.10;;;;;;5095957;28;19989;-72
2023/10/01 02:15:55;;;;;;;;;;;18.90;70.10;;;;;;5114362;28;19966;-72
2023/10/01 02:18:20;;;;;;;;;;;18.80;70.10;;;;;;5096086;28;19930;-73
2023/10/01 02:20:51;;;;;;;;;;;18.90;70.10;;;;;;5114229;28;19920;-72
2023/10/01 02:23:25;;;;;;;;;;;18.80;70.10;;;;;;5095823;28;19972;-72
2023/10/01 02:25:52;;;;;;;;;;;18.80;70.10;;;;;;5096195;28;20008;-71
2023/10/01 02:28:18;;;;;;;;;;;18.90;70.10;;;;;;5114138;28;19943;-72
2023/10/01 02:30:44;;;;;;;;;;;18.90;70.10;;;;;;5095707;28;19992;-72
2023/10/01 02:33:54;;;;;;;;;;;18.90;70.10;;;;;;5096043;28;20023;-71
2023/10/01 02:35:58;;;;;;;;;;;18.90;70.20;;;;;;5095353;28;19935;-71
2023/10/01 02:38:55;;;;;;;;;;;18.90;70.20;;;;;;5095509;28;19920;-71
2023/10/01 02:41:09;;;;;;;;;;;18.90;70.20;;;;;;5113574;28;19924;-72
2023/10/01 02:43:36;;;;;;;;;;;18.80;70.10;;;;;;5078351;28;20419;-72
2023/10/01 02:46:04;;;;;;;;;;;18.90;70.20;;;;;;5078876;28;19923;-72
2023/10/01 02:48:30;;;;;;;;;;;18.80;70.20;;;;;;5095622;28;20015;-72
2023/10/01 02:50:56;;;;;;;;;;;18.80;70.20;;;;;;5095563;28;20471;-72
2023/10/01 02:53:22;;;;;;;;;;;18.80;70.20;;;;;;5095346;28;20311;-72
2023/10/01 02:55:51;;;;;;;;;;;18.80;70.20;;;;;;5095679;28;20202;-71
2023/10/01 02:58:20;;;;;;;;;;;18.80;70.20;;;;;;5129705;27;19919;-71
2023/10/01 03:00:46;;;;;;;;;;;18.80;70.20;;;;;;5113431;28;19959;-71
2023/10/01 03:03:17;;;;;;;;;;;18.80;70.20;;;;;;5095141;28;19932;-71
2023/10/01 03:05:46;;;;;;;;;;;18.80;70.20;;;;;;5095021;28;19930;-72
2023/10/01 03:11:02;;;;;;;;;;;18.80;70.20;;;;;;5094984;28;19920;-72
2023/10/01 03:13:30;;;;;;;;;;;18.80;70.10;;;;;;5094541;28;19920;-71
2023/10/01 03:18:44;;;;;;;;;;;18.80;70.20;;;;;;5074736;28;19962;-72
2023/10/01 03:21:19;;;;;;;;;;;18.80;70.20;;;;;;5074945;28;19920;-72
2023/10/01 03:23:52;;;;;;;;;;;18.80;70.20;;;;;;5074557;28;20580;-72
2023/10/01 03:26:17;;;;;;;;;;;18.80;70.10;;;;;;5092579;28;20014;-72
2023/10/01 03:29:16;;;;;;;;;;;18.80;70.10;;;;;;5093211;28;20001;-71
2023/10/01 03:31:29;;;;;;;;;;;18.80;70.10;;;;;;5092508;28;20279;-72
2023/10/01 03:33:55;;;;;;;;;;;18.80;70.10;;;;;;5074827;28;19920;-69
2023/10/01 03:36:25;;;;;;;;;;;18.80;70.10;;;;;;5074385;28;19920;-69
2023/10/01 03:38:57;;;;;;;;;;;18.80;70.20;;;;;;5074750;28;19928;-69
2023/10/01 03:41:24;;;;;;;;;;;18.80;70.10;;;;;;5074230;28;19965;-70
2023/10/01 03:43:50;;;;;;;;;;;18.80;70.10;;;;;;5074383;28;19964;-70
2023/10/01 03:46:26;;;;;;;;;;;18.80;70.20;;;;;;5092343;28;19920;-70
2023/10/01 03:49:00;;;;;;;;;;;18.80;70.20;;;;;;5075007;28;20076;-69
2023/10/01 03:54:06;;;;;;;;;;;18.80;70.10;;;;;;5110452;27;19919;-69
2023/10/01 03:56:33;;;;;;;;;;;18.80;70.10;;;;;;5108878;28;19920;-70
2023/10/01 03:58:58;;;;;;;;;;;18.80;70.10;;;;;;5109509;28;19924;-70
2023/10/01 04:01:33;;;;;;;;;;;18.80;70.20;;;;;;5108871;28;19920;-69
2023/10/01 04:04:00;;;;;;;;;;;18.80;70.20;;;;;;5108928;28;19959;-69
2023/10/01 04:06:27;;;;;;;;;;;18.80;70.20;;;;;;5108890;28;19920;-70
2023/10/01 04:08:55;;;;;;;;;;;18.70;70.10;;;;;;5109074;28;19999;-70
2023/10/01 04:11:41;;;;;;;;;;;18.80;70.10;;;;;;5108733;28;19966;-70
2023/10/01 04:14:08;;;;;;;;;;;18.80;70.10;;;;;;5108657;28;19924;-70
2023/10/01 04:16:34;;;;;;;;;;;18.70;70.10;;;;;;5108804;28;19920;-70
2023/10/01 04:19:00;;;;;;;;;;;18.80;70.10;;;;;;5108497;28;19920;-70
2023/10/01 04:21:25;;;;;;;;;;;18.80;70.10;;;;;;5108838;28;19951;-70
2023/10/01 04:23:51;;;;;;;;;;;18.80;70.10;;;;;;5108692;28;19963;-70
2023/10/01 04:26:17;;;;;;;;;;;18.80;70.20;;;;;;5109817;28;20368;-70
2023/10/01 04:28:44;;;;;;;;;;;18.70;70.10;;;;;;5109654;28;20332;-70
2023/10/01 04:31:13;;;;;;;;;;;18.70;70.10;;;;;;5108736;28;19920;-70
2023/10/01 04:33:42;;;;;;;;;;;18.80;70.20;;;;;;5108145;28;20008;-70
2023/10/01 04:36:12;;;;;;;;;;;18.80;70.20;;;;;;5108634;28;19943;-70
2023/10/01 04:38:41;;;;;;;;;;;18.80;70.10;;;;;;5108453;28;20542;-70
2023/10/01 04:41:11;;;;;;;;;;;18.80;70.20;;;;;;5108217;28;20000;-70
2023/10/01 04:43:42;;;;;;;;;;;18.80;70.10;;;;;;5108338;28;19920;-70
2023/10/01 04:46:08;;;;;;;;;;;18.80;70.20;;;;;;5108103;28;19919;-70
2023/10/01 04:48:36;;;;;;;;;;;18.70;70.10;;;;;;5108327;28;20018;-70
2023/10/01 04:51:02;;;;;;;;;;;18.70;70.10;;;;;;5107945;28;19919;-70
2023/10/01 04:53:28;;;;;;;;;;;18.70;70.00;;;;;;5107649;28;20358;-70
2023/10/01 04:56:00;;;;;;;;;;;18.70;70.10;;;;;;5108174;28;20010;-70
2023/10/01 04:58:26;;;;;;;;;;;18.70;70.10;;;;;;5107873;28;19920;-70
2023/10/01 05:00:54;;;;;;;;;;;18.70;70.10;;;;;;5107766;28;19924;-70
2023/10/01 05:03:36;;;;;;;;;;;18.70;70.10;;;;;;5106396;28;19920;-70
2023/10/01 05:06:02;;;;;;;;;;;18.70;70.10;;;;;;5094161;28;20370;-70
2023/10/01 05:08:38;;;;;;;;;;;18.70;70.10;;;;;;5094117;28;19973;-70
2023/10/01 05:11:04;;;;;;;;;;;18.70;70.00;;;;;;5094369;28;20284;-69
2023/10/01 05:13:31;;;;;;;;;;;18.70;70.00;;;;;;5093888;28;20062;-69
2023/10/01 05:15:56;;;;;;;;;;;18.70;70.00;;;;;;5094213;28;19927;-70
2023/10/01 05:18:22;;;;;;;;;;;18.70;70.00;;;;;;5094084;28;20002;-70
2023/10/01 05:20:48;;;;;;;;;;;18.70;70.00;;;;;;5095080;28;19924;-70
2023/10/01 05:23:15;;;;;;;;;;;18.70;70.00;;;;;;5094061;28;19928;-70
2023/10/01 05:25:45;;;;;;;;;;;18.70;70.00;;;;;;5094927;28;19920;-70
2023/10/01 05:28:46;;;;;;;;;;;18.70;70.00;;;;;;5093913;28;20294;-70
2023/10/01 05:30:58;;;;;;;;;;;18.70;70.00;;;;;;5093465;28;19924;-69
2023/10/01 05:33:24;;;;;;;;;;;18.70;70.00;;;;;;5094849;28;19931;-70
2023/10/01 05:35:54;;;;;;;;;;;18.70;70.00;;;;;;5093757;28;19920;-69
2023/10/01 05:38:20;;;;;;;;;;;18.70;70.00;;;;;;5093455;28;19999;-69
2023/10/01 05:40:52;;;;;;;;;;;18.70;70.00;;;;;;5093675;28;19999;-69
2023/10/01 05:43:18;;;;;;;;;;;18.70;70.00;;;;;;5093468;28;19920;-69
2023/10/01 05:45:50;;;;;;;;;;;18.70;70.00;;;;;;5094728;28;20424;-69
2023/10/01 05:48:19;;;;;;;;;;;18.70;70.00;;;;;;5093363;28;19946;-69
2023/10/01 05:50:46;;;;;;;;;;;18.70;70.00;;;;;;5093494;28;19985;-71
2023/10/01 05:53:13;;;;;;;;;;;18.70;69.90;;;;;;5094135;28;19924;-70
2023/10/01 05:55:40;;;;;;;;;;;18.60;69.90;;;;;;5093059;28;19921;-70
2023/10/01 05:58:13;;;;;;;;;;;18.70;69.90;;;;;;5093491;28;19942;-69
2023/10/01 06:00:44;;;;;;;;;;;18.60;69.90;;;;;;5093294;28;20334;-70
2023/10/01 06:03:14;;;;;;;;;;;18.70;69.90;;;;;;5093285;28;19927;-70
2023/10/01 06:05:49;;;;;;;;;;;18.70;69.90;;;;;;5092925;28;19920;-70
2023/10/01 06:08:23;;;;;;;;;;;18.60;69.90;;;;;;5093201;28;20344;-69
2023/10/01 06:10:59;;;;;;;;;;;18.70;69.90;;;;;;5093112;28;19975;-70
2023/10/01 06:13:25;;;;;;;;;;;18.60;69.80;;;;;;5092837;28;19924;-70
2023/10/01 06:15:52;;;;;;;;;;;18.70;69.90;;;;;;5091727;28;19920;-70
2023/10/01 06:18:18;;;;;;;;;;;18.70;69.90;;;;;;5092629;28;19931;-70
2023/10/01 06:20:45;;;;;;;;;;;18.70;69.90;;;;;;5093939;28;19924;-70
2023/10/01 06:23:10;;;;;;;;;;;18.70;69.90;;;;;;5092865;28;19920;-70
2023/10/01 06:25:40;;;;;;;;;;;18.60;69.80;;;;;;5092872;28;19927;-70
2023/10/01 06:28:09;;;;;;;;;;;18.70;69.90;;;;;;5092621;28;19920;-70
2023/10/01 06:30:35;;;;;;;;;;;18.70;69.90;;;;;;5093822;28;20327;-70
2023/10/01 06:33:00;;;;;;;;;;;18.70;69.90;;;;;;5092656;28;19931;-70
2023/10/01 06:35:26;;;;;;;;;;;18.60;69.90;;;;;;5092633;28;19924;-70
2023/10/01 06:37:53;;;;;;;;;;;18.60;69.80;;;;;;5092605;28;20244;-70
2023/10/01 06:40:34;;;;;;;;;;;18.60;69.90;;;;;;5093888;28;19923;-70
2023/10/01 06:42:59;;;;;;;;;;;18.70;69.90;;;;;;5092201;28;19926;-69
2023/10/01 06:45:42;;;;;;;;;;;18.70;69.90;;;;;;5092159;28;20007;-70
2023/10/01 06:48:09;;;;;;;;;;;18.70;69.90;;;;;;5093600;28;19999;-70
2023/10/01 06:50:37;;;;;;;;;;;18.60;69.80;;;;;;5093600;28;19920;-70
2023/10/01 06:53:03;;;;;;;;;;;18.60;69.80;;;;;;5093074;28;20027;-69
2023/10/01 06:55:30;;;;;;;;;;;18.60;69.80;;;;;;5092043;28;19966;-70
2023/10/01 06:57:56;;;;;;;;;;;18.60;69.80;;;;;;5091980;28;19920;-70
2023/10/01 07:00:22;;;;;;;;;;;18.70;69.90;;;;;;5093232;28;19943;-70
2023/10/01 07:02:49;;;;;;;;;;;18.70;69.80;;;;;;5092111;28;19931;-70
2023/10/01 07:05:20;;;;;;;;;;;18.70;69.90;;;;;;5093372;28;19920;-70
2023/10/01 07:07:48;;;;;;;;;;;18.70;69.80;;;;;;5091804;28;19920;-70
2023/10/01 07:10:14;;;;;;;;;;;18.60;69.80;;;;;;5092161;28;19924;-70
2023/10/01 07:12:41;;;;;;;;;;;18.70;69.90;;;;;;5091512;28;20411;-69
2023/10/01 07:15:19;;;;;;;;;;;18.60;69.80;;;;;;5092864;28;19920;-70
2023/10/01 07:17:47;;;;;;;;;;;18.70;69.80;;;;;;5093020;28;19920;-70
2023/10/01 07:20:21;;;;;;;;;;;18.70;69.90;;;;;;5091853;28;19928;-70
2023/10/01 07:22:46;;;;;;;;;;;18.70;69.80;;;;;;5092822;28;20363;-70
2023/10/01 07:25:28;;;;;;;;;;;18.70;69.90;;;;;;5091446;28;20007;-70
2023/10/01 07:27:55;;;;;;;;;;;18.70;69.90;;;;;;5091184;28;19920;-70
2023/10/01 07:30:39;;;;;;;;;;;18.70;69.90;;;;;;5091382;28;19920;-69
2023/10/01 07:33:05;;;;;;;;;;;18.70;69.90;;;;;;5091533;28;19973;-70
2023/10/01 07:35:31;;;;;;;;;;;18.70;69.90;;;;;;5091304;28;20082;-69
2023/10/01 07:37:57;;;;;;;;;;;18.70;69.80;;;;;;5092625;28;20371;-69
2023/10/01 07:40:23;;;;;;;;;;;18.70;69.80;;;;;;5091254;28;20173;-70
2023/10/01 07:42:54;;;;;;;;;;;18.60;69.80;;;;;;5091619;28;19924;-70
2023/10/01 07:45:20;;;;;;;;;;;18.70;69.80;;;;;;5092629;28;20286;-70
2023/10/01 07:47:48;;;;;;;;;;;18.60;69.80;;;;;;5091245;28;20007;-70
2023/10/01 07:50:13;;;;;;;;;;;18.70;69.80;;;;;;5091426;28;19921;-70
2023/10/01 07:52:40;;;;;;;;;;;18.60;69.70;;;;;;5091055;28;19924;-69
2023/10/01 07:55:29;;;;;;;;;;;18.70;69.80;;;;;;5093459;28;19924;-68
2023/10/01 07:57:52;;;;;;;;;;;18.70;69.80;;;;;;5092252;28;19935;-70
2023/10/01 08:00:34;;;;;;;;;;;18.70;69.80;;;;;;5091058;28;19924;-70
2023/10/01 08:03:33;;;;;;;;;;;18.70;69.90;;;;;;5091399;28;20333;-70
2023/10/01 08:05:48;;;;;;;;;;;18.60;69.70;;;;;;5091120;28;20018;-69
2023/10/01 08:08:14;;;;;;;;;;;18.70;69.90;;;;;;5091392;28;19965;-70
2023/10/01 08:10:40;;;;;;;;;;;18.70;69.90;;;;;;5091426;28;20278;-70
2023/10/01 08:13:07;;;;;;;;;;;18.70;69.90;;;;;;5091052;28;19924;-70
2023/10/01 08:15:38;;;;;;;;;;;18.70;69.80;;;;;;5091183;28;20283;-70
2023/10/01 08:18:35;;;;;;;;;;;18.70;69.80;;;;;;5090825;28;20391;-70
2023/10/01 08:20:58;;;;;;;;;;;18.60;69.80;;;;;;5091981;28;20448;-70
2023/10/01 08:23:24;;;;;;;;;;;18.60;69.80;;;;;;5091191;28;19920;-70
2023/10/01 08:25:51;;;;;;;;;;;18.70;69.80;;;;;;5092116;28;19920;-70
2023/10/01 08:31:01;;;;;;;;;;;18.60;69.80;;;;;;5110291;27;20367;-70
2023/10/01 08:33:32;;;;;;;;;;;18.60;69.70;;;;;;5109296;28;19942;-70
2023/10/01 08:36:12;;;;;;;;;;;18.70;70.50;;;;;;5109134;28;20011;-70
2023/10/01 08:38:38;;;;;;;;;;;18.70;69.90;;;;;;5108915;28;19920;-69
2023/10/01 08:41:05;;;;;;;;;;;18.60;69.70;;;;;;5109136;28;20025;-70
2023/10/01 08:43:35;;;;;;;;;;;18.70;69.80;;;;;;5108740;28;19927;-70
2023/10/01 08:46:11;;;;;;;;;;;18.70;69.80;;;;;;5108681;28;19926;-70
2023/10/01 08:48:37;;;;;;;;;;;18.70;69.80;;;;;;5109951;28;19923;-69
2023/10/01 08:51:11;;;;;;;;;;;18.70;69.80;;;;;;5108570;28;19920;-69
2023/10/01 08:53:41;;;;;;;;;;;18.70;69.70;;;;;;5108907;28;20018;-70
2023/10/01 08:56:13;;;;;;;;;;;18.70;69.70;;;;;;5108407;28;19934;-70
2023/10/01 08:58:48;;;;;;;;;;;18.70;69.70;;;;;;5108839;28;19920;-70
2023/10/01 09:01:19;;;;;;;;;;;18.70;69.70;;;;;;5109644;28;19920;-71
2023/10/01 09:03:48;;;;;;;;;;;18.70;69.70;;;;;;5108008;28;20299;-69
2023/10/01 09:06:25;;;;;;;;;;;18.70;69.70;;;;;;5108384;28;19964;-70
2023/10/01 09:08:55;;;;;;;;;;;18.70;69.70;;;;;;5108458;28;20276;-70
2023/10/01 09:11:32;;;;;;;;;;;18.70;69.60;;;;;;5108230;28;19920;-69
2023/10/01 09:14:14;;;;;;;;;;;18.70;69.60;;;;;;5108510;28;19943;-69
2023/10/01 09:16:42;;;;;;;;;;;18.70;69.60;;;;;;5108408;28;20283;-70
2023/10/01 09:19:42;;;;;;;;;;;18.80;69.70;;;;;;5091403;28;19920;-70
2023/10/01 09:21:55;;;;;;;;;;;18.70;69.60;;;;;;5108121;28;19973;-70
2023/10/01 09:27:09;;;;;;;;;;;18.80;69.60;;;;;;5107771;28;19924;-70
2023/10/01 09:29:43;;;;;;;;;;;18.80;69.70;;;;;;5107830;28;19924;-70
2023/10/01 09:32:11;;;;;;;;;;;18.70;69.70;;;;;;5109168;28;20379;-70
2023/10/01 09:34:46;;;;;;;;;;;18.80;69.70;;;;;;5107827;28;19989;-70
2023/10/01 09:39:55;;;;;;;;;;;18.80;69.70;;;;;;5090067;28;19912;-70
2023/10/01 09:42:24;;;;;;;;;;;18.80;69.60;;;;;;5088888;28;20023;-71
2023/10/01 09:44:52;;;;;;;;;;;18.80;69.60;;;;;;5105789;28;19927;-70
2023/10/01 09:47:23;;;;;;;;;;;18.80;69.60;;;;;;5088862;28;19927;-70
2023/10/01 09:49:51;;;;;;;;;;;18.80;69.50;;;;;;5088392;28;19969;-72
2023/10/01 09:52:26;;;;;;;;;;;18.80;69.50;;;;;;5088768;28;20033;-72
2023/10/01 09:55:09;;;;;;;;;;;18.80;69.50;;;;;;5088303;28;19920;-72
2023/10/01 09:57:37;;;;;;;;;;;18.80;69.50;;;;;;5088493;28;20029;-72
2023/10/01 10:00:17;;;;;;;;;;;18.80;69.50;;;;;;5088186;28;19920;-72
2023/10/01 10:02:51;;;;;;;;;;;18.80;69.50;;;;;;5089384;28;20015;-72
2023/10/01 10:05:24;;;;;;;;;;;18.80;69.50;;;;;;5089742;28;20116;-72
2023/10/01 10:07:52;;;;;;;;;;;18.80;69.50;;;;;;5088309;28;19921;-72
2023/10/01 10:10:24;;;;;;;;;;;18.80;69.50;;;;;;5089371;28;19966;-70
2023/10/01 10:12:53;;;;;;;;;;;18.80;69.60;;;;;;5088390;28;19920;-70
2023/10/01 10:15:46;;;;;;;;;;;18.80;69.60;;;;;;5089206;28;20390;-71
2023/10/01 10:18:15;;;;;;;;;;;18.80;69.60;;;;;;5087816;28;19931;-70
2023/10/01 10:20:56;;;;;;;;;;;18.80;69.60;;;;;;5089110;28;19994;-70
2023/10/01 10:23:29;;;;;;;;;;;18.80;69.60;;;;;;5087864;28;19925;-70
2023/10/01 10:26:14;;;;;;;;;;;18.80;69.60;;;;;;5087973;28;19973;-70
2023/10/01 10:28:55;;;;;;;;;;;18.80;69.70;;;;;;5088906;28;20005;-70
2023/10/01 10:31:37;;;;;;;;;;;18.80;69.60;;;;;;5087995;28;19943;-70
2023/10/01 10:34:21;;;;;;;;;;;18.80;69.60;;;;;;5089018;28;19921;-70
2023/10/01 10:36:50;;;;;;;;;;;18.80;69.60;;;;;;5087871;28;20228;-70
2023/10/01 10:39:40;;;;;;;;;;;18.80;69.60;;;;;;5087249;28;19924;-70
2023/10/01 10:42:28;;;;;;;;;;;18.80;69.60;;;;;;5087392;28;19926;-70
2023/10/01 10:45:45;;;;;;;;;;;18.80;69.60;;;;;;5087665;28;20290;-70
2023/10/01 10:50:44;;;;;;;;;;;18.80;69.60;;;;;;5110186;27;19912;-70
2023/10/01 10:53:19;;;;;;;;;;;18.80;69.60;;;;;;5109580;28;20322;-70
2023/10/01 10:56:07;;;;;;;;;;;18.80;69.60;;;;;;5108854;28;19920;-70
2023/10/01 10:58:39;;;;;;;;;;;18.80;69.60;;;;;;5109124;28;19920;-70
2023/10/01 11:01:22;;;;;;;;;;;18.90;69.70;;;;;;5108791;28;19920;-70
2023/10/01 11:03:49;;;;;;;;;;;18.80;69.60;;;;;;5108773;28;19920;-70
2023/10/01 11:08:56;;;;;;;;;;;18.80;69.70;;;;;;5110357;27;19938;-70
2023/10/01 11:11:22;;;;;;;;;;;18.90;69.70;;;;;;5108938;28;19920;-70
2023/10/01 11:13:59;;;;;;;;;;;18.90;69.70;;;;;;5108873;28;19924;-70
2023/10/01 11:16:33;;;;;;;;;;;18.90;69.70;;;;;;5109012;28;20351;-70
2023/10/01 11:19:12;;;;;;;;;;;18.80;69.70;;;;;;5108850;28;19920;-70
2023/10/01 11:21:46;;;;;;;;;;;18.90;69.70;;;;;;5143037;27;20379;-70
2023/10/01 11:24:13;;;;;;;;;;;18.90;69.80;;;;;;5109226;28;19985;-70
2023/10/01 11:26:59;;;;;;;;;;;18.80;69.80;;;;;;5108655;28;19920;-70
2023/10/01 11:29:29;;;;;;;;;;;18.90;69.70;;;;;;5108407;28;19924;-71
2023/10/01 11:31:55;;;;;;;;;;;18.90;69.70;;;;;;5108919;28;20456;-71
2023/10/01 11:34:26;;;;;;;;;;;18.90;69.80;;;;;;5108548;28;20169;-70
2023/10/01 11:36:56;;;;;;;;;;;18.90;69.80;;;;;;5108745;28;19926;-70
2023/10/01 11:39:38;;;;;;;;;;;18.90;69.80;;;;;;5108474;28;19920;-71
2023/10/01 11:42:19;;;;;;;;;;;18.90;69.80;;;;;;5108616;28;19924;-70
2023/10/01 11:44:52;;;;;;;;;;;18.90;69.80;;;;;;5108707;28;19920;-70
2023/10/01 11:47:31;;;;;;;;;;;18.90;69.80;;;;;;5108285;28;19928;-70
2023/10/01 11:50:06;;;;;;;;;;;18.90;69.80;;;;;;5108543;28;19920;-70
2023/10/01 11:52:33;;;;;;;;;;;18.90;69.80;;;;;;5108173;28;19920;-70
2023/10/01 11:54:58;;;;;;;;;;;18.90;70.00;;;;;;5108172;28;19920;-70
2023/10/01 11:57:25;;;;;;;;;;;18.90;69.80;;;;;;5109360;28;19971;-74
2023/10/01 11:59:55;;;;;;;;;;;18.90;69.90;;;;;;5107999;28;19927;-71
2023/10/01 12:02:26;;;;;;;;;;;18.90;69.80;;;;;;5109239;28;20325;-70
2023/10/01 12:04:56;;;;;;;;;;;18.90;69.80;;;;;;5109180;28;19955;-70
2023/10/01 12:07:23;;;;;;;;;;;18.90;69.80;;;;;;5107507;28;19931;-71
2023/10/01 12:09:50;;;;;;;;;;;18.90;69.80;;;;;;5109367;28;19927;-70
2023/10/01 12:12:19;;;;;;;;;;;18.90;69.90;;;;;;5108106;28;19923;-70
2023/10/01 12:14:53;;;;;;;;;;;18.90;69.90;;;;;;5107697;28;19920;-71
2023/10/01 12:17:23;;;;;;;;;;;18.90;69.80;;;;;;5108893;28;19924;-71
2023/10/01 12:19:50;;;;;;;;;;;18.90;69.90;;;;;;5097629;28;20291;-70
2023/10/01 12:22:16;;;;;;;;;;;18.90;69.80;;;;;;5094146;28;19924;-70
2023/10/01 12:24:44;;;;;;;;;;;18.90;70.00;;;;;;5095266;28;19920;-70
2023/10/01 12:27:11;;;;;;;;;;;18.90;69.80;;;;;;5094345;28;19943;-70
2023/10/01 12:29:48;;;;;;;;;;;18.90;69.80;;;;;;5094269;28;19969;-70
2023/10/01 12:32:14;;;;;;;;;;;18.90;70.00;;;;;;5094154;28;19920;-71
2023/10/01 12:34:42;;;;;;;;;;;18.90;70.10;;;;;;5093816;28;19927;-70
2023/10/01 12:37:35;;;;;;;;;;;19.00;70.00;;;;;;5093872;28;19924;-71
2023/10/01 12:40:14;;;;;;;;;;;19.00;70.00;;;;;;5094838;28;19920;-70
2023/10/01 12:42:40;;;;;;;;;;;19.00;69.90;;;;;;5094911;28;20288;-70
2023/10/01 12:45:14;;;;;;;;;;;19.00;69.90;;;;;;5093845;28;19931;-70
2023/10/01 12:47:50;;;;;;;;;;;19.00;70.10;;;;;;5095268;28;20257;-70
2023/10/01 12:50:26;;;;;;;;;;;19.00;70.10;;;;;;5093831;28;20391;-70
2023/10/01 12:53:18;;;;;;;;;;;19.00;70.20;;;;;;5094839;28;19920;-70
2023/10/01 12:55:39;;;;;;;;;;;19.00;70.10;;;;;;5093531;28;19920;-71
2023/10/01 12:58:06;;;;;;;;;;;19.00;70.20;;;;;;5093364;28;19932;-70
2023/10/01 13:00:50;;;;;;;;;;;19.00;70.20;;;;;;5094461;28;19920;-70
2023/10/01 13:03:19;;;;;;;;;;;19.00;70.10;;;;;;5093579;28;19927;-71
2023/10/01 13:05:45;;;;;;;;;;;19.00;70.10;;;;;;5093180;28;20049;-70
2023/10/01 13:08:11;;;;;;;;;;;19.00;70.10;;;;;;5092914;28;19924;-70
2023/10/01 13:10:38;;;;;;;;;;;19.00;70.20;;;;;;5093069;28;19959;-70
2023/10/01 13:13:05;;;;;;;;;;;19.00;70.30;;;;;;5093123;28;20006;-70
2023/10/01 13:15:33;;;;;;;;;;;19.00;70.10;;;;;;5093277;28;19920;-71
2023/10/01 13:18:01;;;;;;;;;;;19.00;70.20;;;;;;5094201;28;19927;-71
2023/10/01 13:20:28;;;;;;;;;;;19.00;70.20;;;;;;5093159;28;19920;-71
2023/10/01 13:22:59;;;;;;;;;;;19.00;70.20;;;;;;5092844;28;20389;-71
2023/10/01 13:25:25;;;;;;;;;;;19.00;70.20;;;;;;5094017;28;19920;-71
2023/10/01 13:28:07;;;;;;;;;;;19.00;70.30;;;;;;5092895;28;19931;-70
2023/10/01 13:31:04;;;;;;;;;;;19.00;70.30;;;;;;5091922;28;19924;-71
2023/10/01 13:33:20;;;;;;;;;;;19.00;70.40;;;;;;5093810;28;20272;-71
2023/10/01 13:35:56;;;;;;;;;;;19.00;70.40;;;;;;5092502;28;19927;-71
2023/10/01 13:38:27;;;;;;;;;;;19.00;70.30;;;;;;5092858;28;19920;-70
2023/10/01 14:08:43;;;;;;;;;;;19.10;70.50;;;;;;5093869;28;19966;-71
2023/10/01 14:08:44;;;;;;;;;;;19.10;70.60;;;;;;5091449;28;20019;-70
2023/10/01 14:11:10;;;;;;;;;;;19.10;70.50;;;;;;5091886;28;19927;-70
2023/10/01 14:13:36;;;;;;;;;;;19.10;70.60;;;;;;5093317;28;19943;-71
2023/10/01 14:16:17;;;;;;;;;;;19.10;70.70;;;;;;5092021;28;20379;-71
2023/10/01 14:19:13;;;;;;;;;;;19.10;70.70;;;;;;5071829;28;19934;-71
2023/10/01 14:21:29;;;;;;;;;;;19.10;70.60;;;;;;5071338;28;19927;-71
2023/10/01 14:24:26;;;;;;;;;;;19.10;70.60;;;;;;5071737;28;19924;-70
2023/10/01 14:26:43;;;;;;;;;;;19.10;70.60;;;;;;5072805;28;20583;-70
2023/10/01 14:29:09;;;;;;;;;;;19.10;70.70;;;;;;5072680;28;20280;-71
2023/10/01 14:31:48;;;;;;;;;;;19.10;70.60;;;;;;5072751;28;19921;-70
2023/10/01 14:34:16;;;;;;;;;;;19.10;70.70;;;;;;5071569;28;19920;-70
2023/10/01 14:36:43;;;;;;;;;;;19.10;70.70;;;;;;5072482;28;20375;-71
2023/10/01 14:39:09;;;;;;;;;;;19.10;70.70;;;;;;5071243;28;19928;-71
2023/10/01 14:41:42;;;;;;;;;;;19.20;70.80;;;;;;5071395;28;19971;-71
2023/10/01 14:44:08;;;;;;;;;;;19.10;70.80;;;;;;5072553;28;19925;-70
2023/10/01 14:46:37;;;;;;;;;;;19.10;70.80;;;;;;5071483;28;19920;-70
2023/10/01 14:49:06;;;;;;;;;;;19.10;70.80;;;;;;5071170;28;19927;-70
2023/10/01 14:51:32;;;;;;;;;;;19.10;70.90;;;;;;5071120;28;19921;-71
2023/10/01 14:53:58;;;;;;;;;;;19.20;70.90;;;;;;5071441;28;20069;-70
2023/10/01 14:56:26;;;;;;;;;;;19.20;70.80;;;;;;5072471;28;19993;-70
2023/10/01 14:58:52;;;;;;;;;;;19.20;71.00;;;;;;5072218;28;19925;-70
2023/10/01 15:01:18;;;;;;;;;;;19.20;70.70;;;;;;5070953;28;19924;-70
2023/10/01 15:03:44;;;;;;;;;;;19.10;70.70;;;;;;5070920;28;19924;-70
2023/10/01 15:06:09;;;;;;;;;;;19.20;71.00;;;;;;5071342;28;19943;-70
2023/10/01 15:08:35;;;;;;;;;;;19.20;70.70;;;;;;5070826;28;19925;-70
2023/10/01 15:11:11;;;;;;;;;;;19.10;70.80;;;;;;5070995;28;19924;-70
2023/10/01 15:16:20;;;;;;;;;;;19.20;70.70;;;;;;5130830;27;19916;-71
2023/10/01 15:18:47;;;;;;;;;;;19.20;70.90;;;;;;5129368;28;19920;-70
2023/10/01 15:21:23;;;;;;;;;;;19.20;70.90;;;;;;5130763;27;19951;-71
2023/10/01 15:23:50;;;;;;;;;;;19.20;70.70;;;;;;5164242;27;20014;-71
2023/10/01 15:26:16;;;;;;;;;;;19.20;70.90;;;;;;5129650;28;20038;-70